Thorco Crystal — V2BP9 — position and weather

sailwx.info

Track history (hours):
 
Tides and Currents Weather Stations Pressure Air Temp Water Temp Dewpoint Dewpoint Depression Visibility Wind Speed Wind Dir Waves Ship Positions

Thorco Crystal

Last reported at 2016-Feb-08 12:33 UTC. Time now 2016-Feb-08 14:33 UTC.
Position N 57°09' W 002°03'.

Length 145 m; draft 6.9 m.

Type: Ship. MMSI: 304736000.

Date/timePositionNaut miles runAvg speedWind from/ knotsBaromVisibWave heightAir tempDewpointWater temp
2016-Feb-08 12:33N 57°09' W 002°03'1 1.1
2016-Feb-08 11:29N 57°09' W 002°05'0 0.0
2016-Feb-08 10:23N 57°09' W 002°05'0 0.0
2016-Feb-08 09:23N 57°09' W 002°05'0 0.0
2016-Feb-08 08:29N 57°09' W 002°05'0 0.0
2016-Feb-08 07:17N 57°09' W 002°05'0 0.0
2016-Feb-08 06:29N 57°09' W 002°05'0 0.0
2016-Feb-08 05:29N 57°09' W 002°05'0 0.0
2016-Feb-08 04:23N 57°09' W 002°05'0 0.0
2016-Feb-08 03:29N 57°09' W 002°05'0 0.0
2016-Feb-08 02:29N 57°09' W 002°05'0 0.0
2016-Feb-08 01:23N 57°09' W 002°05'0 0.0
2016-Feb-08 00:29N 57°09' W 002°05'0 0.0
2016-Feb-07 23:23N 57°09' W 002°05'0 0.0
2016-Feb-07 22:29N 57°09' W 002°05'0 0.0
2016-Feb-07 21:29N 57°09' W 002°05'0 0.0
2016-Feb-07 20:23N 57°09' W 002°05'0 0.0
2016-Feb-07 19:29N 57°09' W 002°05'0 0.0
2016-Feb-07 18:29N 57°09' W 002°05'0 0.0
2016-Feb-07 17:29N 57°09' W 002°05'0 0.0
2016-Feb-07 16:29N 57°09' W 002°05'0 0.0
2016-Feb-07 15:29N 57°09' W 002°05'0 0.0
2016-Feb-07 14:29N 57°09' W 002°05'0 0.0
2016-Feb-07 13:29N 57°09' W 002°05'0 0.0
2016-Feb-07 12:29N 57°09' W 002°05'0 0.0
2016-Feb-07 11:23N 57°09' W 002°05'0 0.0
2016-Feb-07 10:23N 57°09' W 002°05'0 0.0
2016-Feb-07 09:23N 57°09' W 002°05'0 0.0
2016-Feb-07 08:29N 57°09' W 002°05'0 0.0
2016-Feb-07 07:29N 57°09' W 002°05'0 0.0
2016-Feb-07 06:23N 57°09' W 002°05'0 0.0
2016-Feb-07 05:29N 57°09' W 002°05'0 0.0
2016-Feb-07 04:17N 57°09' W 002°05'0 0.0
2016-Feb-07 03:05N 57°09' W 002°05'0 0.0
2016-Feb-07 02:29N 57°09' W 002°05'0 0.0
2016-Feb-07 01:29N 57°09' W 002°05'0 0.0
2016-Feb-07 00:31N 57°09' W 002°05'1 1.3
2016-Feb-06 23:32N 57°09' W 002°03'30 9.8
2016-Feb-06 20:30N 56°40' W 001°56'1711.7
2016-Feb-06 19:04N 56°23' W 001°53'4 8.4
2016-Feb-06 18:33N 56°19' W 001°52'3 1.9
2016-Feb-06 17:12N 56°16' W 001°51'1 1.6
2016-Feb-06 16:18N 56°15' W 001°51'3 1.2
2016-Feb-06 13:33N 56°12' W 001°50'1 0.9
2016-Feb-06 12:33N 56°11' W 001°49'1 1.0
2016-Feb-06 11:33N 56°10' W 001°49'1 1.0
2016-Feb-06 10:33N 56°09' W 001°49'1 1.1
2016-Feb-06 09:33N 56°08' W 001°48'1 1.4
2016-Feb-06 08:33N 56°07' W 001°47'9310.4
2016-Feb-05 23:33N 54°46' W 000°23'1010.3
2016-Feb-05 22:33N 54°37' W 000°14'1111.3
2016-Feb-05 21:33N 54°28' W 000°03'1211.8
2016-Feb-05 20:33N 54°18' E 000°08'1211.9
2016-Feb-05 19:33N 54°08' E 000°20'1211.9
2016-Feb-05 18:33N 53°57' E 000°27'4010.0
2016-Feb-05 14:32N 53°24' E 001°06'1210.5
2016-Feb-05 13:21N 53°14' E 001°19'911.5
2016-Feb-05 12:33N 53°08' E 001°29'1212.3
2016-Feb-05 11:33N 53°00' E 001°45'1312.5
2016-Feb-05 10:32N 52°52' E 002°02'1310.7
2016-Feb-05 09:21N 52°40' E 002°08'911.1
2016-Feb-05 08:33N 52°32' E 002°05'1010.4
2016-Feb-05 07:33N 52°21' E 002°00'10 9.8
2016-Feb-05 06:33N 52°12' E 001°56'10 9.8
2016-Feb-05 05:33N 52°03' E 001°52'1010.0
2016-Feb-05 04:33N 51°53' E 001°48'1110.9
2016-Feb-05 03:33N 51°42' E 001°49'1111.0
2016-Feb-05 02:33N 51°32' E 001°55'1010.3
2016-Feb-05 01:33N 51°22' E 002°00'1211.6
2016-Feb-05 00:33N 51°13' E 001°49'1211.9
2016-Feb-04 23:33N 51°03' E 001°38'1212.3
2016-Feb-04 22:33N 50°53' E 001°27'  
2016-Feb-01 21:32N 41°58' W 009°14'10 9.1
2016-Feb-01 20:29N 41°49' W 009°11'8 8.1
2016-Feb-01 19:32N 41°42' W 009°10'9 8.5
2016-Feb-01 18:32N 41°33' W 009°10'9 9.0
2016-Feb-01 17:32N 41°24' W 009°10'9 8.8
2016-Feb-01 16:32N 41°15' W 009°11'9 9.0
2016-Feb-01 15:32N 41°06' W 009°11'9 9.0
2016-Feb-01 14:33N 40°57' W 009°11'10 9.7
2016-Feb-01 13:33N 40°48' W 009°10'1110.6
2016-Feb-01 12:32N 40°37' W 009°10'9 9.1
2016-Feb-01 11:33N 40°28' W 009°10'2 1.7
2016-Feb-01 10:33N 40°26' W 009°09'0 0.0
2016-Feb-01 09:32N 40°26' W 009°09'0 0.0
2016-Feb-01 08:33N 40°26' W 009°09'0 0.0
2016-Feb-01 07:29N 40°26' W 009°09'0 0.0
2016-Feb-01 06:32N 40°26' W 009°09'0 0.0
2016-Feb-01 05:32N 40°26' W 009°09'0 0.0
2016-Feb-01 04:32N 40°26' W 009°09'0 0.0
2016-Feb-01 03:32N 40°26' W 009°09'0 0.0
2016-Feb-01 02:33N 40°26' W 009°09'0 0.0
2016-Feb-01 01:32N 40°26' W 009°09'0 0.0
2016-Feb-01 00:32N 40°26' W 009°09'0 0.0
2016-Jan-31 23:29N 40°26' W 009°09'0 0.0
2016-Jan-31 22:26N 40°26' W 009°09'0 0.1
2016-Jan-31 21:32N 40°26' W 009°09'0 0.0
2016-Jan-31 20:29N 40°26' W 009°09'0 0.0
2016-Jan-31 19:32N 40°26' W 009°09'0 0.1
2016-Jan-31 18:29N 40°26' W 009°09'0 0.1
2016-Jan-31 17:29N 40°26' W 009°09'0 0.0
2016-Jan-31 16:29N 40°26' W 009°09'0 0.0
2016-Jan-31 15:26N 40°26' W 009°09'0 0.0
2016-Jan-31 14:29N 40°26' W 009°09'0 0.1
2016-Jan-31 13:33N 40°26' W 009°09'0 0.1
2016-Jan-31 12:32N 40°26' W 009°09'0 0.0
2016-Jan-31 11:29N 40°26' W 009°09'0 0.0
2016-Jan-31 10:30N 40°26' W 009°09'0 0.0
2016-Jan-31 09:26N 40°26' W 009°09'0 0.0
2016-Jan-31 08:32N 40°26' W 009°09'0 0.0
2016-Jan-31 07:27N 40°26' W 009°09'0 0.0
2016-Jan-31 06:29N 40°26' W 009°09'0 0.0
2016-Jan-31 05:33N 40°26' W 009°09'0 0.0
2016-Jan-31 04:23N 40°26' W 009°09'0 0.0
2016-Jan-31 03:30N 40°26' W 009°09'0 0.1
2016-Jan-31 02:29N 40°26' W 009°09'8 8.5
2016-Jan-31 01:32N 40°22' W 009°18'7 6.6
2016-Jan-31 00:32N 40°18' W 009°25'1 1.5
2016-Jan-30 23:32N 40°16' W 009°26'12 9.3
2016-Jan-30 22:17N 40°06' W 009°32'811.1
2016-Jan-30 21:32N 39°60' W 009°40'10 9.8
2016-Jan-30 20:29N 39°52' W 009°49'9 9.8
2016-Jan-30 19:32N 39°46' W 009°58'1010.3
2016-Jan-30 18:32N 39°39' W 010°08'1010.4
2016-Jan-30 17:33N 39°31' W 010°17'6 5.5
2016-Jan-30 16:31N 39°26' W 010°20'9 9.7
2016-Jan-30 15:33N 39°20' W 010°29'1110.6
2016-Jan-30 14:32N 39°14' W 010°40'1010.3
2016-Jan-30 13:32N 39°06' W 010°49'9 9.1
2016-Jan-30 12:33N 38°58' W 010°54'29 9.5
2016-Jan-30 09:33N 38°30' W 010°59'  
Track history (hours):
 
Tides and Currents Weather Stations Pressure Air Temp Water Temp Dewpoint Dewpoint Depression Visibility Wind Speed Wind Dir Waves Ship Positions

Thorco Crystal

Last reported at 2016-Feb-08 12:33 UTC. Time now 2016-Feb-08 14:33 UTC.
Position N 57°09' W 002°03'.

Length 145 m; draft 6.9 m.

Type: Ship. MMSI: 304736000.

Date/timePositionNaut miles runAvg speedWind from/ knotsBaromVisibWave heightAir tempDewpointWater temp
2016-Feb-08 12:33N 57°09' W 002°03'1 1.1
2016-Feb-08 11:29N 57°09' W 002°05'0 0.0
2016-Feb-08 10:23N 57°09' W 002°05'0 0.0
2016-Feb-08 09:23N 57°09' W 002°05'0 0.0
2016-Feb-08 08:29N 57°09' W 002°05'0 0.0
2016-Feb-08 07:17N 57°09' W 002°05'0 0.0
2016-Feb-08 06:29N 57°09' W 002°05'0 0.0
2016-Feb-08 05:29N 57°09' W 002°05'0 0.0
2016-Feb-08 04:23N 57°09' W 002°05'0 0.0
2016-Feb-08 03:29N 57°09' W 002°05'0 0.0
2016-Feb-08 02:29N 57°09' W 002°05'0 0.0
2016-Feb-08 01:23N 57°09' W 002°05'0 0.0
2016-Feb-08 00:29N 57°09' W 002°05'0 0.0
2016-Feb-07 23:23N 57°09' W 002°05'0 0.0
2016-Feb-07 22:29N 57°09' W 002°05'0 0.0
2016-Feb-07 21:29N 57°09' W 002°05'0 0.0
2016-Feb-07 20:23N 57°09' W 002°05'0 0.0
2016-Feb-07 19:29N 57°09' W 002°05'0 0.0
2016-Feb-07 18:29N 57°09' W 002°05'0 0.0
2016-Feb-07 17:29N 57°09' W 002°05'0 0.0
2016-Feb-07 16:29N 57°09' W 002°05'0 0.0
2016-Feb-07 15:29N 57°09' W 002°05'0 0.0
2016-Feb-07 14:29N 57°09' W 002°05'0 0.0
2016-Feb-07 13:29N 57°09' W 002°05'0 0.0
2016-Feb-07 12:29N 57°09' W 002°05'0 0.0
2016-Feb-07 11:23N 57°09' W 002°05'0 0.0
2016-Feb-07 10:23N 57°09' W 002°05'0 0.0
2016-Feb-07 09:23N 57°09' W 002°05'0 0.0
2016-Feb-07 08:29N 57°09' W 002°05'0 0.0
2016-Feb-07 07:29N 57°09' W 002°05'0 0.0
2016-Feb-07 06:23N 57°09' W 002°05'0 0.0
2016-Feb-07 05:29N 57°09' W 002°05'0 0.0
2016-Feb-07 04:17N 57°09' W 002°05'0 0.0
2016-Feb-07 03:05N 57°09' W 002°05'0 0.0
2016-Feb-07 02:29N 57°09' W 002°05'0 0.0
2016-Feb-07 01:29N 57°09' W 002°05'0 0.0
2016-Feb-07 00:31N 57°09' W 002°05'1 1.3
2016-Feb-06 23:32N 57°09' W 002°03'30 9.8
2016-Feb-06 20:30N 56°40' W 001°56'1711.7
2016-Feb-06 19:04N 56°23' W 001°53'4 8.4
2016-Feb-06 18:33N 56°19' W 001°52'3 1.9
2016-Feb-06 17:12N 56°16' W 001°51'1 1.6
2016-Feb-06 16:18N 56°15' W 001°51'3 1.2
2016-Feb-06 13:33N 56°12' W 001°50'1 0.9
2016-Feb-06 12:33N 56°11' W 001°49'1 1.0
2016-Feb-06 11:33N 56°10' W 001°49'1 1.0
2016-Feb-06 10:33N 56°09' W 001°49'1 1.1
2016-Feb-06 09:33N 56°08' W 001°48'1 1.4
2016-Feb-06 08:33N 56°07' W 001°47'9310.4
2016-Feb-05 23:33N 54°46' W 000°23'1010.3
2016-Feb-05 22:33N 54°37' W 000°14'1111.3
2016-Feb-05 21:33N 54°28' W 000°03'1211.8
2016-Feb-05 20:33N 54°18' E 000°08'1211.9
2016-Feb-05 19:33N 54°08' E 000°20'1211.9
2016-Feb-05 18:33N 53°57' E 000°27'4010.0
2016-Feb-05 14:32N 53°24' E 001°06'1210.5
2016-Feb-05 13:21N 53°14' E 001°19'911.5
2016-Feb-05 12:33N 53°08' E 001°29'1212.3
2016-Feb-05 11:33N 53°00' E 001°45'1312.5
2016-Feb-05 10:32N 52°52' E 002°02'1310.7
2016-Feb-05 09:21N 52°40' E 002°08'911.1
2016-Feb-05 08:33N 52°32' E 002°05'1010.4
2016-Feb-05 07:33N 52°21' E 002°00'10 9.8
2016-Feb-05 06:33N 52°12' E 001°56'10 9.8
2016-Feb-05 05:33N 52°03' E 001°52'1010.0
2016-Feb-05 04:33N 51°53' E 001°48'1110.9
2016-Feb-05 03:33N 51°42' E 001°49'1111.0
2016-Feb-05 02:33N 51°32' E 001°55'1010.3
2016-Feb-05 01:33N 51°22' E 002°00'1211.6
2016-Feb-05 00:33N 51°13' E 001°49'1211.9
2016-Feb-04 23:33N 51°03' E 001°38'1212.3
2016-Feb-04 22:33N 50°53' E 001°27'  
2016-Feb-01 21:32N 41°58' W 009°14'10 9.1
2016-Feb-01 20:29N 41°49' W 009°11'8 8.1
2016-Feb-01 19:32N 41°42' W 009°10'9 8.5
2016-Feb-01 18:32N 41°33' W 009°10'9 9.0
2016-Feb-01 17:32N 41°24' W 009°10'9 8.8
2016-Feb-01 16:32N 41°15' W 009°11'9 9.0
2016-Feb-01 15:32N 41°06' W 009°11'9 9.0
2016-Feb-01 14:33N 40°57' W 009°11'10 9.7
2016-Feb-01 13:33N 40°48' W 009°10'1110.6
2016-Feb-01 12:32N 40°37' W 009°10'9 9.1
2016-Feb-01 11:33N 40°28' W 009°10'2 1.7
2016-Feb-01 10:33N 40°26' W 009°09'0 0.0
2016-Feb-01 09:32N 40°26' W 009°09'0 0.0
2016-Feb-01 08:33N 40°26' W 009°09'0 0.0
2016-Feb-01 07:29N 40°26' W 009°09'0 0.0
2016-Feb-01 06:32N 40°26' W 009°09'0 0.0
2016-Feb-01 05:32N 40°26' W 009°09'0 0.0
2016-Feb-01 04:32N 40°26' W 009°09'0 0.0
2016-Feb-01 03:32N 40°26' W 009°09'0 0.0
2016-Feb-01 02:33N 40°26' W 009°09'0 0.0
2016-Feb-01 01:32N 40°26' W 009°09'0 0.0
2016-Feb-01 00:32N 40°26' W 009°09'0 0.0
2016-Jan-31 23:29N 40°26' W 009°09'0 0.0
2016-Jan-31 22:26N 40°26' W 009°09'0 0.1
2016-Jan-31 21:32N 40°26' W 009°09'0 0.0
2016-Jan-31 20:29N 40°26' W 009°09'0 0.0
2016-Jan-31 19:32N 40°26' W 009°09'0 0.1
2016-Jan-31 18:29N 40°26' W 009°09'0 0.1
2016-Jan-31 17:29N 40°26' W 009°09'0 0.0
2016-Jan-31 16:29N 40°26' W 009°09'0 0.0
2016-Jan-31 15:26N 40°26' W 009°09'0 0.0
2016-Jan-31 14:29N 40°26' W 009°09'0 0.1
2016-Jan-31 13:33N 40°26' W 009°09'0 0.1
2016-Jan-31 12:32N 40°26' W 009°09'0 0.0
2016-Jan-31 11:29N 40°26' W 009°09'0 0.0
2016-Jan-31 10:30N 40°26' W 009°09'0 0.0
2016-Jan-31 09:26N 40°26' W 009°09'0 0.0
2016-Jan-31 08:32N 40°26' W 009°09'0 0.0
2016-Jan-31 07:27N 40°26' W 009°09'0 0.0
2016-Jan-31 06:29N 40°26' W 009°09'0 0.0
2016-Jan-31 05:33N 40°26' W 009°09'0 0.0
2016-Jan-31 04:23N 40°26' W 009°09'0 0.0
2016-Jan-31 03:30N 40°26' W 009°09'0 0.1
2016-Jan-31 02:29N 40°26' W 009°09'8 8.5
2016-Jan-31 01:32N 40°22' W 009°18'7 6.6
2016-Jan-31 00:32N 40°18' W 009°25'1 1.5
2016-Jan-30 23:32N 40°16' W 009°26'12 9.3
2016-Jan-30 22:17N 40°06' W 009°32'811.1
2016-Jan-30 21:32N 39°60' W 009°40'10 9.8
2016-Jan-30 20:29N 39°52' W 009°49'9 9.8
2016-Jan-30 19:32N 39°46' W 009°58'1010.3
2016-Jan-30 18:32N 39°39' W 010°08'1010.4
2016-Jan-30 17:33N 39°31' W 010°17'6 5.5
2016-Jan-30 16:31N 39°26' W 010°20'9 9.7
2016-Jan-30 15:33N 39°20' W 010°29'1110.6
2016-Jan-30 14:32N 39°14' W 010°40'1010.3
2016-Jan-30 13:32N 39°06' W 010°49'9 9.1
2016-Jan-30 12:33N 38°58' W 010°54'29 9.5
2016-Jan-30 09:33N 38°30' W 010°59'  

Dump ship's entire track history